Orbital elements of CZ-2C DEB
| Launched | 28 July 2011 |
| Flight ended | – |
| Launch site | Jiuquan Space Center, PRC |
| Owner | People's Republic of China |
| NORAD ID | 37770 |
| Date fetched |
Epoch osculation |
Inc. [°] |
Ecc. | RA asc node [hr] |
Arg Peri. [°] |
Mean anom [°] |
Mean motion [rev/day] |
Abs. mag |
| Date fetched |
Epoch osculation |
Inc. [°] |
Ecc. | RA asc node [hr] |
Arg Peri. [°] |
Mean anom [°] |
Mean motion [rev/day] |
Abs. mag |
| 2026 May 01 17:56 | 2026 Apr 30 14:24:35 | 97.9196 | 0.00327 | 3.5579 | 160.6635 | 12.7084 | 15.12866 | – |
| 2026 Apr 30 17:56 | 2026 Apr 30 14:24:35 | 97.9196 | 0.00327 | 3.5579 | 160.6635 | 12.7084 | 15.12866 | – |
| 2026 Apr 29 17:57 | 2026 Apr 24 07:33:20 | 97.9186 | 0.00318 | 3.1231 | 181.6998 | 12.7084 | 15.12866 | – |
| 2026 Apr 28 17:56 | 2026 Apr 24 07:33:20 | 97.9186 | 0.00318 | 3.1231 | 181.6998 | 12.7084 | 15.12866 | – |
| 2026 Apr 27 17:58 | 2026 Apr 24 07:33:20 | 97.9186 | 0.00318 | 3.1231 | 181.6998 | 12.7084 | 15.12866 | – |
| 2026 Apr 26 17:58 | 2026 Apr 24 07:33:20 | 97.9186 | 0.00318 | 3.1231 | 181.6998 | 12.7084 | 15.12866 | – |
| 2026 Apr 25 17:58 | 2026 Apr 24 07:33:20 | 97.9186 | 0.00318 | 3.1231 | 181.6998 | 12.7084 | 15.12866 | – |
| 2026 Apr 24 17:59 | 2026 Apr 24 07:33:20 | 97.9186 | 0.00318 | 3.1231 | 181.6998 | 12.7084 | 15.12866 | – |
| 2026 Apr 23 17:57 | 2026 Apr 19 13:16:25 | 97.9195 | 0.00312 | 2.7940 | 198.1101 | 12.7084 | 15.12866 | – |
| 2026 Apr 22 17:57 | 2026 Apr 19 13:16:25 | 97.9195 | 0.00312 | 2.7940 | 198.1101 | 12.7084 | 15.12866 | – |
| 2026 Apr 21 17:57 | 2026 Apr 19 13:16:25 | 97.9195 | 0.00312 | 2.7940 | 198.1101 | 12.7084 | 15.12866 | – |
| 2026 Apr 20 17:57 | 2026 Apr 19 13:16:25 | 97.9195 | 0.00312 | 2.7940 | 198.1101 | 12.7084 | 15.12866 | – |
| 2026 Apr 19 17:58 | 2026 Apr 19 13:16:25 | 97.9195 | 0.00312 | 2.7940 | 198.1101 | 12.7084 | 15.12866 | – |
| 2026 Apr 18 17:56 | 2026 Apr 13 06:20:35 | 97.9176 | 0.00307 | 2.3593 | 220.7821 | 12.7084 | 15.12866 | – |
| 2026 Apr 16 17:57 | 2026 Apr 13 06:20:35 | 97.9176 | 0.00307 | 2.3593 | 220.7821 | 12.7084 | 15.12866 | – |
| 2026 Apr 14 17:57 | 2026 Apr 13 06:20:35 | 97.9176 | 0.00307 | 2.3593 | 220.7821 | 12.7084 | 15.12866 | – |
| 2026 Apr 13 17:57 | 2026 Apr 13 06:20:35 | 97.9176 | 0.00307 | 2.3593 | 220.7821 | 12.7084 | 15.12866 | – |
| 2026 Apr 12 17:57 | 2026 Apr 08 13:39:10 | 97.9183 | 0.00302 | 2.0349 | 237.7100 | 12.7084 | 15.12866 | – |
| 2026 Apr 11 17:57 | 2026 Apr 08 13:39:10 | 97.9183 | 0.00302 | 2.0349 | 237.7100 | 12.7084 | 15.12866 | – |
| 2026 Apr 10 17:58 | 2026 Apr 08 13:39:10 | 97.9183 | 0.00302 | 2.0349 | 237.7100 | 12.7084 | 15.12866 | – |
| 2026 Apr 09 18:01 | 2026 Apr 08 13:39:10 | 97.9183 | 0.00302 | 2.0349 | 237.7100 | 12.7084 | 15.12866 | – |
| 2026 Apr 08 17:57 | 2026 Apr 08 13:39:10 | 97.9183 | 0.00302 | 2.0349 | 237.7100 | 12.7084 | 15.12866 | – |
| 2026 Apr 07 17:57 | 2026 Apr 02 06:36:31 | 97.9185 | 0.00303 | 1.6003 | 261.4106 | 12.7084 | 15.12866 | – |
| 2026 Apr 06 17:57 | 2026 Apr 02 06:36:31 | 97.9185 | 0.00303 | 1.6003 | 261.4106 | 12.7084 | 15.12866 | – |
| 2026 Apr 05 17:56 | 2026 Apr 02 06:36:31 | 97.9185 | 0.00303 | 1.6003 | 261.4106 | 12.7084 | 15.12866 | – |
| 2026 Apr 04 17:57 | 2026 Apr 02 06:36:31 | 97.9185 | 0.00303 | 1.6003 | 261.4106 | 12.7084 | 15.12866 | – |